Terminal Aerodrome Forecast
Issued by NWS Mt. Holly, NJ

Home | Current Version | Previous Version | Text Only | Print | Product List | Glossary On
Versions: 1 2 3 4 5 6 7 8 9 10 11 12 13 14 15 16 17 18 19 20 21 22 23 24 25 26 27 28 29 30 31 32 33 34 35
000
FTAK31 PANC 011740
TAFABE
TAF
PABE 011740Z 0118/0218 17005KT 6SM BR SCT005
      TEMPO 0118/0119 22006KT 1/2SM FG VV001
     FM012000 13008KT P6SM SCT200
     FM021200 12010G20KT 6SM -RA BR SCT010 BKN020
     FM021500 12015G25KT 4SM -RA BR SCT007 BKN012=

USA.gov is the U.S. government's official web portal to all federal, state and local government web resources and services.